Time,TemperatureF,DewpointF,PressureIn,WindDirection,WindDirectionDegrees,WindSpeedMPH,WindSpeedGustMPH,Humidity,HourlyPrecipIn,Conditions,Clouds,dailyrainin,SoftwareType,DateUTC
2013-03-03 00:00:00,52.5,38.1,30.01,NE,40,2.0,5.0,58,0.00,,,0.00,Wunderground v.1.15,2013-03-03 05:00:00,
2013-03-03 00:05:00,52.5,38.6,30.02,North,6,0.0,2.0,59,0.00,,,0.00,Wunderground v.1.15,2013-03-03 05:05:00,
2013-03-03 00:11:00,52.2,37.4,30.01,NE,53,1.0,1.0,57,0.00,,,0.00,Wunderground v.1.15,2013-03-03 05:11:00,
2013-03-03 00:16:00,52.0,37.7,30.01,NNW,334,0.0,1.0,58,0.00,,,0.00,Wunderground v.1.15,2013-03-03 05:16:00,
2013-03-03 00:21:00,51.7,37.8,30.01,NE,39,2.0,2.0,59,0.00,,,0.00,Wunderground v.1.15,2013-03-03 05:21:00,
2013-03-03 00:27:00,51.4,39.2,30.01,North,356,2.0,3.0,63,0.00,,,0.00,Wunderground v.1.15,2013-03-03 05:27:00,
2013-03-03 00:33:00,50.5,39.2,30.01,NNE,25,5.0,5.0,65,0.00,,,0.00,Wunderground v.1.15,2013-03-03 05:33:00,
2013-03-03 00:39:00,49.6,38.7,30.02,NE,49,10.0,10.0,66,0.00,,,0.00,Wunderground v.1.15,2013-03-03 05:39:00,
2013-03-03 00:45:00,48.5,38.0,30.02,NW,319,3.0,8.0,67,0.00,,,0.00,Wunderground v.1.15,2013-03-03 05:45:00,
2013-03-03 00:50:00,47.9,37.5,30.02,North,8,5.0,8.0,67,0.00,,,0.00,Wunderground v.1.15,2013-03-03 05:50:00,
2013-03-03 00:56:00,47.3,35.7,30.02,NE,37,8.0,8.0,64,0.00,,,0.00,Wunderground v.1.15,2013-03-03 05:56:00,
2013-03-03 01:01:00,46.7,35.2,30.02,North,6,7.0,7.0,64,0.00,,,0.00,Wunderground v.1.15,2013-03-03 06:01:00,
2013-03-03 01:07:00,46.4,34.9,30.02,ENE,67,6.0,7.0,64,0.00,,,0.00,Wunderground v.1.15,2013-03-03 06:07:00,
2013-03-03 01:13:00,46.1,34.2,30.03,North,4,3.0,9.0,63,0.00,,,0.00,Wunderground v.1.15,2013-03-03 06:13:00,
2013-03-03 01:19:00,45.9,33.6,30.03,NNE,33,8.0,13.0,62,0.00,,,0.00,Wunderground v.1.15,2013-03-03 06:19:00,
2013-03-03 01:25:00,45.6,33.3,30.02,NNE,18,4.0,8.0,62,0.00,,,0.00,Wunderground v.1.15,2013-03-03 06:25:00,
2013-03-03 01:31:00,45.3,32.6,30.03,ENE,62,3.0,6.0,61,0.00,,,0.00,Wunderground v.1.15,2013-03-03 06:31:00,
2013-03-03 01:37:00,45.1,32.8,30.03,North,360,5.0,8.0,62,0.00,,,0.00,Wunderground v.1.15,2013-03-03 06:37:00,
2013-03-03 01:43:00,44.9,32.3,30.03,NE,37,1.0,5.0,61,0.00,,,0.00,Wunderground v.1.15,2013-03-03 06:43:00,
2013-03-03 01:49:00,44.7,32.5,30.03,NE,46,2.0,8.0,62,0.00,,,0.00,Wunderground v.1.15,2013-03-03 06:49:00,
2013-03-03 01:55:00,44.5,32.3,30.03,NW,320,2.0,5.0,62,0.00,,,0.00,Wunderground v.1.15,2013-03-03 06:55:00,
2013-03-03 02:01:00,44.3,32.5,30.03,ENE,75,1.0,3.0,63,0.00,,,0.00,Wunderground v.1.15,2013-03-03 07:01:00,
2013-03-03 02:06:00,44.2,32.4,30.03,NNE,19,5.0,9.0,63,0.00,,,0.00,Wunderground v.1.15,2013-03-03 07:06:00,
2013-03-03 02:11:00,44.1,32.3,30.03,NE,37,3.0,7.0,63,0.00,,,0.00,Wunderground v.1.15,2013-03-03 07:11:00,
2013-03-03 02:16:00,44.0,32.2,30.03,ENE,67,3.0,7.0,63,0.00,,,0.00,Wunderground v.1.15,2013-03-03 07:16:00,
2013-03-03 02:21:00,43.8,32.0,30.03,North,5,6.0,6.0,63,0.00,,,0.00,Wunderground v.1.15,2013-03-03 07:21:00,
2013-03-03 02:26:00,43.7,31.9,30.03,NE,40,4.0,9.0,63,0.00,,,0.00,Wunderground v.1.15,2013-03-03 07:26:00,
2013-03-03 02:31:00,43.6,31.8,30.03,NNE,33,3.0,7.0,63,0.00,,,0.00,Wunderground v.1.15,2013-03-03 07:31:00,
2013-03-03 02:36:00,43.5,31.7,30.03,NNE,18,7.0,7.0,63,0.00,,,0.00,Wunderground v.1.15,2013-03-03 07:36:00,
2013-03-03 02:41:00,43.4,31.2,30.03,North,358,3.0,8.0,62,0.00,,,0.00,Wunderground v.1.15,2013-03-03 07:41:00,
2013-03-03 02:46:00,43.2,30.6,30.03,ENE,64,3.0,8.0,61,0.00,,,0.00,Wunderground v.1.15,2013-03-03 07:46:00,
2013-03-03 02:51:00,43.2,30.6,30.03,NNE,23,2.0,9.0,61,0.00,,,0.00,Wunderground v.1.15,2013-03-03 07:51:00,
2013-03-03 02:56:00,43.3,30.3,30.03,ENE,77,2.0,9.0,60,0.00,,,0.00,Wunderground v.1.15,2013-03-03 07:56:00,
2013-03-03 03:01:00,43.4,30.8,30.02,ENE,63,5.0,7.0,61,0.00,,,0.00,Wunderground v.1.15,2013-03-03 08:01:00,
2013-03-03 03:06:00,43.5,30.5,30.03,NE,53,2.0,8.0,60,0.00,,,0.00,Wunderground v.1.15,2013-03-03 08:06:00,
2013-03-03 03:11:00,43.6,30.6,30.03,North,356,1.0,5.0,60,0.00,,,0.00,Wunderground v.1.15,2013-03-03 08:11:00,
2013-03-03 03:16:00,43.7,30.7,30.03,North,359,4.0,7.0,60,0.00,,,0.00,Wunderground v.1.15,2013-03-03 08:16:00,
2013-03-03 03:21:00,43.7,30.7,30.03,North,352,3.0,4.0,60,0.00,,,0.00,Wunderground v.1.15,2013-03-03 08:21:00,
2013-03-03 03:26:00,43.6,31.0,30.03,ENE,58,1.0,6.0,61,0.00,,,0.00,Wunderground v.1.15,2013-03-03 08:26:00,
2013-03-03 03:31:00,43.6,31.0,30.03,NNE,27,2.0,7.0,61,0.00,,,0.00,Wunderground v.1.15,2013-03-03 08:31:00,
2013-03-03 03:36:00,43.6,30.6,30.03,ENE,58,2.0,9.0,60,0.00,,,0.00,Wunderground v.1.15,2013-03-03 08:36:00,
2013-03-03 03:41:00,43.6,30.2,30.03,NNE,27,2.0,6.0,59,0.00,,,0.00,Wunderground v.1.15,2013-03-03 08:41:00,
2013-03-03 03:46:00,43.5,29.7,30.03,NE,53,4.0,8.0,58,0.00,,,0.00,Wunderground v.1.15,2013-03-03 08:46:00,
2013-03-03 03:51:00,43.5,29.7,30.03,NE,56,1.0,4.0,58,0.00,,,0.00,Wunderground v.1.15,2013-03-03 08:51:00,
2013-03-03 03:56:00,43.4,30.0,30.03,ENE,75,3.0,6.0,59,0.00,,,0.00,Wunderground v.1.15,2013-03-03 08:56:00,
2013-03-03 04:01:00,43.5,29.7,30.03,NE,49,4.0,4.0,58,0.00,,,0.00,Wunderground v.1.15,2013-03-03 09:01:00,
2013-03-03 04:06:00,43.5,29.7,30.03,NNE,13,1.0,4.0,58,0.00,,,0.00,Wunderground v.1.15,2013-03-03 09:06:00,
2013-03-03 04:11:00,43.5,29.7,30.03,NE,56,2.0,6.0,58,0.00,,,0.00,Wunderground v.1.15,2013-03-03 09:11:00,
2013-03-03 04:16:00,43.5,29.7,30.03,East,90,3.0,7.0,58,0.00,,,0.00,Wunderground v.1.15,2013-03-03 09:16:00,
2013-03-03 04:21:00,43.4,29.6,30.03,NE,50,5.0,6.0,58,0.00,,,0.00,Wunderground v.1.15,2013-03-03 09:21:00,
2013-03-03 04:26:00,43.4,29.2,30.03,NNW,340,4.0,7.0,57,0.00,,,0.00,Wunderground v.1.15,2013-03-03 09:26:00,
2013-03-03 04:31:00,43.4,29.6,30.03,NNE,32,2.0,4.0,58,0.00,,,0.00,Wunderground v.1.15,2013-03-03 09:31:00,
2013-03-03 04:36:00,43.3,29.5,30.03,North,359,3.0,7.0,58,0.00,,,0.00,Wunderground v.1.15,2013-03-03 09:36:00,
2013-03-03 04:41:00,43.3,29.5,30.03,North,354,4.0,4.0,58,0.00,,,0.00,Wunderground v.1.15,2013-03-03 09:41:00,
2013-03-03 04:46:00,43.3,29.1,30.03,North,359,4.0,10.0,57,0.00,,,0.00,Wunderground v.1.15,2013-03-03 09:46:00,
2013-03-03 04:51:00,43.2,29.0,30.03,ENE,65,6.0,6.0,57,0.00,,,0.00,Wunderground v.1.15,2013-03-03 09:51:00,
2013-03-03 04:56:00,43.1,28.9,30.03,North,357,3.0,10.0,57,0.00,,,0.00,Wunderground v.1.15,2013-03-03 09:56:00,
2013-03-03 05:01:00,43.0,29.2,30.03,NE,44,5.0,6.0,58,0.00,,,0.00,Wunderground v.1.15,2013-03-03 10:01:00,
2013-03-03 05:06:00,43.0,29.2,30.03,ENE,69,5.0,7.0,58,0.00,,,0.00,Wunderground v.1.15,2013-03-03 10:06:00,
2013-03-03 05:11:00,43.0,29.2,30.03,NNE,22,1.0,4.0,58,0.00,,,0.00,Wunderground v.1.15,2013-03-03 10:11:00,
2013-03-03 05:16:00,43.0,29.6,30.03,ENE,62,2.0,9.0,59,0.00,,,0.00,Wunderground v.1.15,2013-03-03 10:16:00,
2013-03-03 05:21:00,43.1,29.3,30.03,North,352,2.0,4.0,58,0.00,,,0.00,Wunderground v.1.15,2013-03-03 10:21:00,
2013-03-03 05:26:00,43.1,29.7,30.03,NE,44,4.0,6.0,59,0.00,,,0.00,Wunderground v.1.15,2013-03-03 10:26:00,
2013-03-03 05:31:00,43.1,29.7,30.03,NNE,23,7.0,7.0,59,0.00,,,0.00,Wunderground v.1.15,2013-03-03 10:31:00,
2013-03-03 05:36:00,43.1,29.7,30.03,North,360,3.0,12.0,59,0.00,,,0.00,Wunderground v.1.15,2013-03-03 10:36:00,
2013-03-03 05:41:00,43.1,30.1,30.04,NE,41,3.0,5.0,60,0.00,,,0.00,Wunderground v.1.15,2013-03-03 10:41:00,
2013-03-03 05:46:00,43.0,30.1,30.04,NE,37,1.0,7.0,60,0.00,,,0.00,Wunderground v.1.15,2013-03-03 10:46:00,
2013-03-03 05:52:00,43.0,30.1,30.04,NE,45,1.0,4.0,60,0.00,,,0.00,Wunderground v.1.15,2013-03-03 10:52:00,
2013-03-03 05:57:00,43.0,30.5,30.04,NE,56,5.0,6.0,61,0.00,,,0.00,Wunderground v.1.15,2013-03-03 10:57:00,
2013-03-03 06:02:00,43.0,30.9,30.04,NNE,25,1.0,3.0,62,0.00,,,0.00,Wunderground v.1.15,2013-03-03 11:02:00,
2013-03-03 06:07:00,43.0,31.3,30.04,NNE,24,6.0,7.0,63,0.00,,,0.00,Wunderground v.1.15,2013-03-03 11:07:00,
2013-03-03 06:12:00,43.0,30.9,30.05,NE,44,4.0,6.0,62,0.00,,,0.00,Wunderground v.1.15,2013-03-03 11:12:00,
2013-03-03 06:17:00,43.0,30.9,30.04,NE,40,3.0,7.0,62,0.00,,,0.00,Wunderground v.1.15,2013-03-03 11:17:00,
2013-03-03 06:22:00,43.0,30.9,30.05,NE,44,2.0,4.0,62,0.00,,,0.00,Wunderground v.1.15,2013-03-03 11:22:00,
2013-03-03 06:27:00,43.1,31.4,30.05,NE,39,0.0,4.0,63,0.00,,,0.00,Wunderground v.1.15,2013-03-03 11:27:00,
2013-03-03 06:32:00,43.1,31.7,30.06,NE,37,0.0,4.0,64,0.00,,,0.00,Wunderground v.1.15,2013-03-03 11:32:00,
2013-03-03 06:37:00,43.1,31.4,30.06,NE,39,1.0,4.0,63,0.00,,,0.00,Wunderground v.1.15,2013-03-03 11:37:00,
2013-03-03 06:42:00,43.1,31.4,30.06,North,356,3.0,3.0,63,0.00,,,0.00,Wunderground v.1.15,2013-03-03 11:42:00,
2013-03-03 06:47:00,43.0,31.6,30.06,NE,37,3.0,3.0,64,0.00,,,0.00,Wunderground v.1.15,2013-03-03 11:47:00,
2013-03-03 06:51:00,43.0,31.3,30.06,North,9,1.0,2.0,63,0.00,,,0.00,Wunderground v.1.15,2013-03-03 11:51:00,
2013-03-03 06:56:00,43.1,31.4,30.05,NNE,15,3.0,6.0,63,0.00,,,0.00,Wunderground v.1.15,2013-03-03 11:56:00,
2013-03-03 07:01:00,43.1,31.4,30.06,NNE,26,1.0,4.0,63,0.00,,,0.00,Wunderground v.1.15,2013-03-03 12:01:00,
2013-03-03 07:07:00,43.1,31.4,30.05,NE,34,3.0,8.0,63,0.00,,,0.00,Wunderground v.1.15,2013-03-03 12:07:00,
2013-03-03 07:12:00,43.1,31.7,30.05,NNE,24,4.0,6.0,64,0.00,,,0.00,Wunderground v.1.15,2013-03-03 12:12:00,
2013-03-03 07:17:00,43.1,31.4,30.05,ENE,69,7.0,7.0,63,0.00,,,0.00,Wunderground v.1.15,2013-03-03 12:17:00,
2013-03-03 07:22:00,43.1,31.7,30.06,NNE,13,1.0,4.0,64,0.00,,,0.00,Wunderground v.1.15,2013-03-03 12:22:00,
2013-03-03 07:27:00,43.1,32.1,30.06,ENE,74,1.0,6.0,65,0.00,,,0.00,Wunderground v.1.15,2013-03-03 12:27:00,
2013-03-03 07:32:00,42.9,32.7,30.06,ENE,63,3.0,5.0,67,0.00,,,0.00,Wunderground v.1.15,2013-03-03 12:32:00,
2013-03-03 07:37:00,42.8,32.6,30.06,ENE,69,4.0,8.0,67,0.00,,,0.00,Wunderground v.1.15,2013-03-03 12:37:00,
2013-03-03 07:42:00,42.6,32.8,30.06,NE,44,4.0,7.0,68,0.00,,,0.00,Wunderground v.1.15,2013-03-03 12:42:00,
2013-03-03 07:47:00,42.5,33.0,30.06,ENE,62,4.0,7.0,69,0.00,,,0.00,Wunderground v.1.15,2013-03-03 12:47:00,
2013-03-03 07:52:00,42.5,33.0,30.06,NE,51,4.0,7.0,69,0.00,,,0.00,Wunderground v.1.15,2013-03-03 12:52:00,
2013-03-03 07:57:00,42.5,33.0,30.06,ENE,72,3.0,8.0,69,0.00,,,0.00,Wunderground v.1.15,2013-03-03 12:57:00,
2013-03-03 08:02:00,42.5,33.4,30.06,East,84,5.0,7.0,70,0.00,,,0.00,Wunderground v.1.15,2013-03-03 13:02:00,
2013-03-03 08:07:00,42.5,33.4,30.07,East,101,2.0,8.0,70,0.00,,,0.00,Wunderground v.1.15,2013-03-03 13:07:00,
2013-03-03 08:12:00,42.4,33.3,30.07,ENE,58,4.0,8.0,70,0.00,,,0.00,Wunderground v.1.15,2013-03-03 13:12:00,
2013-03-03 08:17:00,42.4,33.7,30.07,NNW,347,5.0,9.0,71,0.00,,,0.00,Wunderground v.1.15,2013-03-03 13:17:00,
2013-03-03 08:22:00,42.4,33.7,30.08,NE,51,0.0,4.0,71,0.00,,,0.00,Wunderground v.1.15,2013-03-03 13:22:00,
2013-03-03 08:27:00,42.5,33.8,30.08,NNE,12,1.0,4.0,71,0.00,,,0.00,Wunderground v.1.15,2013-03-03 13:27:00,
2013-03-03 08:32:00,42.5,33.4,30.08,ENE,58,2.0,3.0,70,0.00,,,0.00,Wunderground v.1.15,2013-03-03 13:32:00,
2013-03-03 08:37:00,42.6,33.1,30.08,ENE,68,1.0,6.0,69,0.00,,,0.00,Wunderground v.1.15,2013-03-03 13:37:00,
2013-03-03 08:42:00,42.7,33.2,30.08,NE,46,3.0,3.0,69,0.00,,,0.00,Wunderground v.1.15,2013-03-03 13:42:00,
2013-03-03 08:47:00,42.9,33.4,30.09,NE,36,1.0,4.0,69,0.00,,,0.00,Wunderground v.1.15,2013-03-03 13:47:00,
2013-03-03 08:52:00,42.9,33.4,30.09,ENE,61,4.0,5.0,69,0.00,,,0.00,Wunderground v.1.15,2013-03-03 13:52:00,
2013-03-03 08:57:00,42.9,32.7,30.09,East,89,4.0,6.0,67,0.00,,,0.00,Wunderground v.1.15,2013-03-03 13:57:00,
2013-03-03 09:02:00,43.0,33.2,30.09,NE,56,3.0,3.0,68,0.00,,,0.00,Wunderground v.1.15,2013-03-03 14:02:00,
2013-03-03 09:07:00,43.0,33.2,30.09,ENE,60,1.0,5.0,68,0.00,,,0.00,Wunderground v.1.15,2013-03-03 14:07:00,
2013-03-03 09:12:00,43.1,33.3,30.10,ENE,60,4.0,4.0,68,0.00,,,0.00,Wunderground v.1.15,2013-03-03 14:12:00,
2013-03-03 09:17:00,43.2,32.6,30.09,NE,52,3.0,6.0,66,0.00,,,0.00,Wunderground v.1.15,2013-03-03 14:17:00,
2013-03-03 09:22:00,43.3,33.1,30.09,NE,39,5.0,8.0,67,0.00,,,0.00,Wunderground v.1.15,2013-03-03 14:22:00,
2013-03-03 09:27:00,43.5,33.3,30.09,ENE,59,3.0,8.0,67,0.00,,,0.00,Wunderground v.1.15,2013-03-03 14:27:00,
2013-03-03 09:32:00,43.7,33.1,30.09,NE,41,2.0,7.0,66,0.00,,,0.00,Wunderground v.1.15,2013-03-03 14:32:00,
2013-03-03 09:37:00,43.8,33.2,30.09,NNE,16,2.0,7.0,66,0.00,,,0.00,Wunderground v.1.15,2013-03-03 14:37:00,
2013-03-03 09:42:00,44.0,33.7,30.10,NE,40,2.0,3.0,67,0.00,,,0.00,Wunderground v.1.15,2013-03-03 14:42:00,
2013-03-03 09:47:00,44.2,33.6,30.10,ENE,70,4.0,7.0,66,0.00,,,0.00,Wunderground v.1.15,2013-03-03 14:47:00,
2013-03-03 09:52:00,44.3,33.3,30.10,NE,41,2.0,6.0,65,0.00,,,0.00,Wunderground v.1.15,2013-03-03 14:52:00,
2013-03-03 09:57:00,44.8,34.1,30.09,SE,144,0.0,6.0,66,0.00,,,0.00,Wunderground v.1.15,2013-03-03 14:57:00,
2013-03-03 10:02:00,45.2,34.5,30.10,NE,46,1.0,5.0,66,0.00,,,0.00,Wunderground v.1.15,2013-03-03 15:02:00,
2013-03-03 10:07:00,45.2,33.3,30.10,NNE,20,1.0,6.0,63,0.00,,,0.00,Wunderground v.1.15,2013-03-03 15:07:00,
2013-03-03 10:12:00,45.1,33.6,30.10,ENE,68,3.0,4.0,64,0.00,,,0.00,Wunderground v.1.15,2013-03-03 15:12:00,
2013-03-03 10:17:00,45.0,33.2,30.10,East,89,1.0,6.0,63,0.00,,,0.00,Wunderground v.1.15,2013-03-03 15:17:00,
2013-03-03 10:22:00,45.0,33.5,30.10,NE,35,1.0,6.0,64,0.00,,,0.00,Wunderground v.1.15,2013-03-03 15:22:00,
2013-03-03 10:27:00,45.1,33.6,30.10,ENE,60,2.0,6.0,64,0.00,,,0.00,Wunderground v.1.15,2013-03-03 15:27:00,
2013-03-03 10:32:00,45.4,33.9,30.10,North,1,1.0,5.0,64,0.00,,,0.00,Wunderground v.1.15,2013-03-03 15:32:00,
2013-03-03 10:37:00,45.5,34.0,30.10,NE,46,1.0,5.0,64,0.00,,,0.00,Wunderground v.1.15,2013-03-03 15:37:00,
2013-03-03 10:42:00,45.5,34.4,30.10,North,351,1.0,3.0,65,0.00,,,0.00,Wunderground v.1.15,2013-03-03 15:42:00,
2013-03-03 10:47:00,45.8,33.9,30.10,NE,46,2.0,5.0,63,0.00,,,0.00,Wunderground v.1.15,2013-03-03 15:47:00,
2013-03-03 10:52:00,45.7,34.2,30.10,ENE,60,1.0,5.0,64,0.00,,,0.00,Wunderground v.1.15,2013-03-03 15:52:00,
2013-03-03 10:58:00,46.0,34.1,30.10,NE,40,2.0,5.0,63,0.00,,,0.00,Wunderground v.1.15,2013-03-03 15:58:00,
2013-03-03 11:02:00,46.0,34.9,30.10,NNE,32,3.0,4.0,65,0.00,,,0.00,Wunderground v.1.15,2013-03-03 16:02:00,
2013-03-03 11:07:00,46.0,34.5,30.10,NE,38,1.0,5.0,64,0.00,,,0.00,Wunderground v.1.15,2013-03-03 16:07:00,
2013-03-03 11:12:00,46.1,35.0,30.10,NNE,23,2.0,2.0,65,0.00,,,0.00,Wunderground v.1.15,2013-03-03 16:12:00,
2013-03-03 11:18:00,46.2,35.1,30.10,NE,41,3.0,5.0,65,0.00,,,0.00,Wunderground v.1.15,2013-03-03 16:18:00,
2013-03-03 11:23:00,46.4,34.9,30.09,NNE,17,2.0,5.0,64,0.00,,,0.00,Wunderground v.1.15,2013-03-03 16:23:00,
2013-03-03 11:28:00,46.9,35.7,30.09,NNE,18,2.0,6.0,65,0.00,,,0.00,Wunderground v.1.15,2013-03-03 16:28:00,
2013-03-03 11:33:00,47.9,35.9,30.09,North,4,2.0,4.0,63,0.00,,,0.00,Wunderground v.1.15,2013-03-03 16:33:00,
2013-03-03 11:38:00,48.0,35.6,30.09,ENE,59,4.0,6.0,62,0.00,,,0.00,Wunderground v.1.15,2013-03-03 16:38:00,
2013-03-03 11:43:00,48.9,37.3,30.09,NE,39,0.0,5.0,64,0.00,,,0.00,Wunderground v.1.15,2013-03-03 16:43:00,
2013-03-03 11:48:00,48.9,35.6,30.08,North,351,2.0,7.0,60,0.00,,,0.00,Wunderground v.1.15,2013-03-03 16:48:00,
2013-03-03 11:53:00,49.6,36.7,30.08,NNE,24,1.0,4.0,61,0.00,,,0.00,Wunderground v.1.15,2013-03-03 16:53:00,
2013-03-03 11:58:00,51.1,41.3,30.08,WNW,302,3.0,8.0,69,0.00,,,0.00,Wunderground v.1.15,2013-03-03 16:58:00,
2013-03-03 12:03:00,51.2,37.4,30.08,NNE,21,3.0,7.0,59,0.00,,,0.00,Wunderground v.1.15,2013-03-03 17:03:00,
2013-03-03 12:08:00,51.7,38.3,30.08,NE,46,7.0,8.0,60,0.00,,,0.00,Wunderground v.1.15,2013-03-03 17:08:00,
2013-03-03 12:13:00,52.1,39.9,30.08,WSW,245,0.0,3.0,63,0.00,,,0.00,Wunderground v.1.15,2013-03-03 17:13:00,
2013-03-03 12:18:00,53.0,39.0,30.07,ENE,69,1.0,12.0,59,0.00,,,0.00,Wunderground v.1.15,2013-03-03 17:18:00,
2013-03-03 12:23:00,54.4,40.4,30.07,NE,45,2.0,5.0,59,0.00,,,0.00,Wunderground v.1.15,2013-03-03 17:23:00,
2013-03-03 12:28:00,54.5,40.5,30.07,SW,233,0.0,8.0,59,0.00,,,0.00,Wunderground v.1.15,2013-03-03 17:28:00,
2013-03-03 12:33:00,55.3,40.8,30.07,East,83,2.0,3.0,58,0.00,,,0.00,Wunderground v.1.15,2013-03-03 17:33:00,
2013-03-03 12:38:00,55.5,40.0,30.07,NNE,18,3.0,4.0,56,0.00,,,0.00,Wunderground v.1.15,2013-03-03 17:38:00,
2013-03-03 12:43:00,56.4,40.4,30.07,East,101,1.0,5.0,55,0.00,,,0.00,Wunderground v.1.15,2013-03-03 17:43:00,
2013-03-03 12:48:00,56.0,41.0,30.06,South,186,1.0,10.0,57,0.00,,,0.00,Wunderground v.1.15,2013-03-03 17:48:00,
2013-03-03 12:53:00,57.5,41.9,30.06,SSE,156,0.0,3.0,56,0.00,,,0.00,Wunderground v.1.15,2013-03-03 17:53:00,
2013-03-03 12:58:00,58.5,41.9,30.06,WNW,302,2.0,4.0,54,0.00,,,0.00,Wunderground v.1.15,2013-03-03 17:58:00,
2013-03-03 13:03:00,58.6,40.5,30.06,SSW,195,3.0,7.0,51,0.00,,,0.00,Wunderground v.1.15,2013-03-03 18:03:00,
2013-03-03 13:08:00,58.1,39.5,30.05,NE,39,1.0,8.0,50,0.00,,,0.00,Wunderground v.1.15,2013-03-03 18:08:00,
2013-03-03 13:13:00,58.1,41.0,30.06,East,100,1.0,4.0,53,0.00,,,0.00,Wunderground v.1.15,2013-03-03 18:13:00,
2013-03-03 13:18:00,57.5,39.5,30.06,SSW,200,3.0,4.0,51,0.00,,,0.00,Wunderground v.1.15,2013-03-03 18:18:00,
2013-03-03 13:23:00,56.9,41.4,30.06,SE,139,1.0,3.0,56,0.00,,,0.00,Wunderground v.1.15,2013-03-03 18:23:00,
2013-03-03 13:28:00,57.7,40.7,30.05,NE,54,2.0,5.0,53,0.00,,,0.00,Wunderground v.1.15,2013-03-03 18:28:00,
2013-03-03 13:33:00,56.9,39.9,30.05,ESE,105,0.0,4.0,53,0.00,,,0.00,Wunderground v.1.15,2013-03-03 18:33:00,
2013-03-03 13:38:00,56.9,40.9,30.05,North,353,0.0,4.0,55,0.00,,,0.00,Wunderground v.1.15,2013-03-03 18:38:00,
2013-03-03 13:43:00,57.3,40.3,30.05,ENE,70,1.0,4.0,53,0.00,,,0.00,Wunderground v.1.15,2013-03-03 18:43:00,
2013-03-03 13:48:00,57.5,41.0,30.05,NE,34,1.0,5.0,54,0.00,,,0.00,Wunderground v.1.15,2013-03-03 18:48:00,
2013-03-03 13:53:00,57.8,40.3,30.05,East,82,3.0,6.0,52,0.00,,,0.00,Wunderground v.1.15,2013-03-03 18:53:00,
2013-03-03 13:58:00,57.9,40.9,30.05,South,182,2.0,6.0,53,0.00,,,0.00,Wunderground v.1.15,2013-03-03 18:58:00,
2013-03-03 14:03:00,57.5,40.0,30.05,South,175,1.0,3.0,52,0.00,,,0.00,Wunderground v.1.15,2013-03-03 19:03:00,
2013-03-03 14:08:00,56.4,39.0,30.05,ENE,70,2.0,7.0,52,0.00,,,0.00,Wunderground v.1.15,2013-03-03 19:08:00,
2013-03-03 14:13:00,55.8,38.9,30.05,SSW,194,2.0,3.0,53,0.00,,,0.00,Wunderground v.1.15,2013-03-03 19:13:00,
2013-03-03 14:18:00,55.3,38.9,30.05,ESE,105,1.0,6.0,54,0.00,,,0.00,Wunderground v.1.15,2013-03-03 19:18:00,
2013-03-03 14:23:00,55.6,39.7,30.05,ESE,121,1.0,3.0,55,0.00,,,0.00,Wunderground v.1.15,2013-03-03 19:23:00,
2013-03-03 14:28:00,55.3,38.0,30.05,ESE,109,2.0,6.0,52,0.00,,,0.00,Wunderground v.1.15,2013-03-03 19:28:00,
2013-03-03 14:33:00,55.2,39.3,30.05,SW,224,2.0,3.0,55,0.00,,,0.00,Wunderground v.1.15,2013-03-03 19:33:00,
2013-03-03 14:38:00,54.7,38.4,30.06,SSE,158,1.0,9.0,54,0.00,,,0.00,Wunderground v.1.15,2013-03-03 19:38:00,
2013-03-03 14:43:00,54.3,38.0,30.06,South,191,1.0,5.0,54,0.00,,,0.00,Wunderground v.1.15,2013-03-03 19:43:00,
2013-03-03 14:48:00,54.2,38.4,30.06,ESE,115,1.0,7.0,55,0.00,,,0.00,Wunderground v.1.15,2013-03-03 19:48:00,
2013-03-03 14:53:00,54.0,38.2,30.06,SSE,160,3.0,3.0,55,0.00,,,0.00,Wunderground v.1.15,2013-03-03 19:53:00,
2013-03-03 14:58:00,54.1,38.3,30.06,East,101,0.0,4.0,55,0.00,,,0.00,Wunderground v.1.15,2013-03-03 19:58:00,
2013-03-03 15:03:00,54.1,38.3,30.06,WSW,257,2.0,5.0,55,0.00,,,0.00,Wunderground v.1.15,2013-03-03 20:03:00,
2013-03-03 15:08:00,53.8,38.5,30.06,NE,54,5.0,5.0,56,0.00,,,0.00,Wunderground v.1.15,2013-03-03 20:08:00,
2013-03-03 15:13:00,53.7,38.8,30.05,East,86,1.0,6.0,57,0.00,,,0.00,Wunderground v.1.15,2013-03-03 20:13:00,
2013-03-03 15:18:00,54.1,39.6,30.05,WSW,243,1.0,6.0,58,0.00,,,0.00,Wunderground v.1.15,2013-03-03 20:18:00,
2013-03-03 15:23:00,54.8,39.4,30.05,ENE,71,1.0,5.0,56,0.00,,,0.00,Wunderground v.1.15,2013-03-03 20:23:00,
2013-03-03 15:28:00,55.2,39.3,30.05,NE,34,1.0,5.0,55,0.00,,,0.00,Wunderground v.1.15,2013-03-03 20:28:00,
2013-03-03 15:33:00,55.0,39.1,30.05,NE,42,1.0,2.0,55,0.00,,,0.00,Wunderground v.1.15,2013-03-03 20:33:00,
2013-03-03 15:38:00,54.1,39.2,30.05,SSW,201,1.0,4.0,57,0.00,,,0.00,Wunderground v.1.15,2013-03-03 20:38:00,
2013-03-03 15:43:00,53.3,38.9,30.05,NNE,15,2.0,8.0,58,0.00,,,0.00,Wunderground v.1.15,2013-03-03 20:43:00,
2013-03-03 15:48:00,53.7,39.3,30.05,SE,134,0.0,8.0,58,0.00,,,0.00,Wunderground v.1.15,2013-03-03 20:48:00,
2013-03-03 15:53:00,53.7,39.7,30.05,SSW,207,0.0,7.0,59,0.00,,,0.00,Wunderground v.1.15,2013-03-03 20:53:00,
2013-03-03 15:58:00,54.0,39.1,30.05,NNE,12,1.0,7.0,57,0.00,,,0.00,Wunderground v.1.15,2013-03-03 20:58:00,
2013-03-03 16:03:00,54.2,38.8,30.05,South,175,0.0,5.0,56,0.00,,,0.00,Wunderground v.1.15,2013-03-03 21:03:00,
2013-03-03 16:08:00,54.1,39.2,30.05,SSE,166,1.0,5.0,57,0.00,,,0.00,Wunderground v.1.15,2013-03-03 21:08:00,
2013-03-03 16:13:00,53.8,38.5,30.05,NE,55,1.0,4.0,56,0.00,,,0.00,Wunderground v.1.15,2013-03-03 21:13:00,
2013-03-03 16:18:00,53.6,39.2,30.05,NE,56,1.0,4.0,58,0.00,,,0.00,Wunderground v.1.15,2013-03-03 21:18:00,
2013-03-03 16:23:00,53.6,38.7,30.05,NE,36,0.0,3.0,57,0.00,,,0.00,Wunderground v.1.15,2013-03-03 21:23:00,
2013-03-03 16:28:00,53.5,39.1,30.05,SE,146,1.0,4.0,58,0.00,,,0.00,Wunderground v.1.15,2013-03-03 21:28:00,
2013-03-03 16:33:00,53.8,40.2,30.05,ENE,71,1.0,4.0,60,0.00,,,0.00,Wunderground v.1.15,2013-03-03 21:33:00,
2013-03-03 16:38:00,53.5,39.1,30.05,ESE,118,1.0,6.0,58,0.00,,,0.00,Wunderground v.1.15,2013-03-03 21:38:00,
2013-03-03 16:43:00,53.0,38.6,30.06,WNW,295,2.0,4.0,58,0.00,,,0.00,Wunderground v.1.15,2013-03-03 21:43:00,
2013-03-03 16:48:00,52.8,39.3,30.06,NNW,339,3.0,4.0,60,0.00,,,0.00,Wunderground v.1.15,2013-03-03 21:48:00,
2013-03-03 16:53:00,52.9,38.5,30.05,SE,143,2.0,5.0,58,0.00,,,0.00,Wunderground v.1.15,2013-03-03 21:53:00,
2013-03-03 16:58:00,53.1,38.3,30.05,West,259,1.0,6.0,57,0.00,,,0.00,Wunderground v.1.15,2013-03-03 21:58:00,
2013-03-03 17:03:00,52.8,38.4,30.06,ESE,122,1.0,3.0,58,0.00,,,0.00,Wunderground v.1.15,2013-03-03 22:03:00,
2013-03-03 17:08:00,52.5,38.1,30.06,NE,34,9.0,9.0,58,0.00,,,0.00,Wunderground v.1.15,2013-03-03 22:08:00,
2013-03-03 17:13:00,52.6,38.2,30.06,ENE,67,1.0,4.0,58,0.00,,,0.00,Wunderground v.1.15,2013-03-03 22:13:00,
2013-03-03 17:18:00,52.3,38.0,30.07,ESE,121,4.0,10.0,58,0.00,,,0.00,Wunderground v.1.15,2013-03-03 22:18:00,
2013-03-03 17:23:00,51.9,37.6,30.07,ENE,67,1.0,12.0,58,0.00,,,0.00,Wunderground v.1.15,2013-03-03 22:23:00,
2013-03-03 17:28:00,51.6,37.7,30.07,South,171,1.0,12.0,59,0.00,,,0.00,Wunderground v.1.15,2013-03-03 22:28:00,
2013-03-03 17:33:00,51.4,37.5,30.07,South,182,0.0,3.0,59,0.00,,,0.00,Wunderground v.1.15,2013-03-03 22:33:00,
2013-03-03 17:38:00,51.0,37.2,30.07,SSE,147,2.0,5.0,59,0.00,,,0.00,Wunderground v.1.15,2013-03-03 22:38:00,
2013-03-03 17:43:00,50.6,36.8,30.07,ESE,103,1.0,7.0,59,0.00,,,0.00,Wunderground v.1.15,2013-03-03 22:43:00,
2013-03-03 17:48:00,50.6,37.2,30.07,West,265,2.0,7.0,60,0.00,,,0.00,Wunderground v.1.15,2013-03-03 22:48:00,
2013-03-03 17:53:00,50.6,37.2,30.07,ENE,71,3.0,3.0,60,0.00,,,0.00,Wunderground v.1.15,2013-03-03 22:53:00,
2013-03-03 17:58:00,50.5,37.5,30.08,South,181,1.0,3.0,61,0.00,,,0.00,Wunderground v.1.15,2013-03-03 22:58:00,
2013-03-03 18:03:00,50.1,36.7,30.08,NE,41,2.0,5.0,60,0.00,,,0.00,Wunderground v.1.15,2013-03-03 23:03:00,
2013-03-03 18:08:00,50.0,37.1,30.08,NE,42,3.0,6.0,61,0.00,,,0.00,Wunderground v.1.15,2013-03-03 23:08:00,
2013-03-03 18:13:00,49.9,37.4,30.08,ENE,69,0.0,4.0,62,0.00,,,0.00,Wunderground v.1.15,2013-03-03 23:13:00,
2013-03-03 18:18:00,49.8,37.3,30.08,East,80,1.0,4.0,62,0.00,,,0.00,Wunderground v.1.15,2013-03-03 23:18:00,
2013-03-03 18:23:00,49.7,37.2,30.09,SSE,153,0.0,6.0,62,0.00,,,0.00,Wunderground v.1.15,2013-03-03 23:23:00,
2013-03-03 18:28:00,49.6,37.5,30.09,NE,49,2.0,6.0,63,0.00,,,0.00,Wunderground v.1.15,2013-03-03 23:28:00,
2013-03-03 18:33:00,49.5,37.8,30.09,NE,37,1.0,2.0,64,0.00,,,0.00,Wunderground v.1.15,2013-03-03 23:33:00,
2013-03-03 18:38:00,49.3,37.2,30.09,South,189,1.0,4.0,63,0.00,,,0.00,Wunderground v.1.15,2013-03-03 23:38:00,
2013-03-03 18:43:00,49.2,37.5,30.09,SE,146,0.0,3.0,64,0.00,,,0.00,Wunderground v.1.15,2013-03-03 23:43:00,
2013-03-03 18:48:00,49.2,37.9,30.09,ENE,67,2.0,3.0,65,0.00,,,0.00,Wunderground v.1.15,2013-03-03 23:48:00,
2013-03-03 18:54:00,49.3,38.0,30.10,SSE,167,1.0,2.0,65,0.00,,,0.00,Wunderground v.1.15,2013-03-03 23:54:00,
2013-03-03 19:00:00,49.1,37.4,30.10,NE,40,2.0,2.0,64,0.00,,,0.00,Wunderground v.1.15,2013-03-04 00:00:00,
2013-03-03 19:05:00,49.0,37.7,30.10,NE,51,2.0,2.0,65,0.00,,,0.00,Wunderground v.1.15,2013-03-04 00:05:00,
2013-03-03 19:11:00,49.1,38.2,30.11,NE,56,1.0,1.0,66,0.00,,,0.00,Wunderground v.1.15,2013-03-04 00:11:00,
2013-03-03 19:17:00,49.2,38.3,30.11,ENE,58,1.0,3.0,66,0.00,,,0.00,Wunderground v.1.15,2013-03-04 00:17:00,
2013-03-03 21:33:00,50.3,38.6,30.15,West,278,2.0,13.0,64,0.00,,,0.00,Wunderground v.1.15,2013-03-04 02:33:00,
2013-03-03 21:38:00,50.3,38.2,30.15,SW,214,1.0,13.0,63,0.00,,,0.00,Wunderground v.1.15,2013-03-04 02:38:00,
2013-03-03 21:43:00,50.3,38.2,30.16,NNE,24,0.0,2.0,63,0.00,,,0.00,Wunderground v.1.15,2013-03-04 02:43:00,
2013-03-03 21:48:00,50.3,38.6,30.16,ENE,59,0.0,2.0,64,0.00,,,0.00,Wunderground v.1.15,2013-03-04 02:48:00,
2013-03-03 21:53:00,50.3,38.6,30.16,SE,139,1.0,1.0,64,0.00,,,0.00,Wunderground v.1.15,2013-03-04 02:53:00,
2013-03-03 21:58:00,50.5,39.2,30.16,SSE,157,0.0,4.0,65,0.00,,,0.00,Wunderground v.1.15,2013-03-04 02:58:00,
2013-03-03 22:03:00,50.6,39.7,30.16,NE,46,1.0,1.0,66,0.00,,,0.00,Wunderground v.1.15,2013-03-04 03:03:00,
2013-03-03 22:08:00,50.7,39.7,30.16,ENE,71,0.0,4.0,66,0.00,,,0.00,Wunderground v.1.15,2013-03-04 03:08:00,
2013-03-03 22:13:00,50.7,39.7,30.16,SSE,161,2.0,2.0,66,0.00,,,0.00,Wunderground v.1.15,2013-03-04 03:13:00,
2013-03-03 22:18:00,50.8,39.5,30.16,North,4,2.0,3.0,65,0.00,,,0.00,Wunderground v.1.15,2013-03-04 03:18:00,
2013-03-03 22:23:00,50.9,39.5,30.16,NW,321,0.0,3.0,65,0.00,,,0.00,Wunderground v.1.15,2013-03-04 03:23:00,
2013-03-03 22:28:00,50.8,38.7,30.16,East,97,1.0,3.0,63,0.00,,,0.00,Wunderground v.1.15,2013-03-04 03:28:00,
2013-03-03 22:33:00,50.8,38.7,30.16,North,354,0.0,5.0,63,0.00,,,0.00,Wunderground v.1.15,2013-03-04 03:33:00,
2013-03-03 22:38:00,50.6,38.9,30.17,NE,44,5.0,5.0,64,0.00,,,0.00,Wunderground v.1.15,2013-03-04 03:38:00,
2013-03-03 22:43:00,50.7,39.0,30.17,NNE,30,0.0,3.0,64,0.00,,,0.00,Wunderground v.1.15,2013-03-04 03:43:00,
2013-03-03 22:48:00,50.8,39.8,30.17,NE,56,0.0,3.0,66,0.00,,,0.00,Wunderground v.1.15,2013-03-04 03:48:00,
2013-03-03 22:53:00,50.8,40.2,30.17,East,90,0.0,1.0,67,0.00,,,0.00,Wunderground v.1.15,2013-03-04 03:53:00,
2013-03-03 22:58:00,50.9,39.5,30.16,East,99,1.0,3.0,65,0.00,,,0.00,Wunderground v.1.15,2013-03-04 03:58:00,
2013-03-03 23:03:00,50.8,39.1,30.16,East,96,0.0,1.0,64,0.00,,,0.00,Wunderground v.1.15,2013-03-04 04:03:00,
2013-03-03 23:08:00,50.6,38.9,30.17,NE,42,0.0,3.0,64,0.00,,,0.00,Wunderground v.1.15,2013-03-04 04:08:00,
2013-03-03 23:13:00,50.4,39.1,30.17,ENE,68,0.0,2.0,65,0.00,,,0.00,Wunderground v.1.15,2013-03-04 04:13:00,
2013-03-03 23:18:00,50.5,39.6,30.17,NW,324,0.0,8.0,66,0.00,,,0.00,Wunderground v.1.15,2013-03-04 04:18:00,
2013-03-03 23:23:00,50.5,39.6,30.17,South,186,1.0,5.0,66,0.00,,,0.00,Wunderground v.1.15,2013-03-04 04:23:00,
2013-03-03 23:28:00,50.5,38.8,30.17,SE,128,1.0,5.0,64,0.00,,,0.00,Wunderground v.1.15,2013-03-04 04:28:00,
2013-03-03 23:33:00,50.5,38.8,30.17,NE,34,0.0,2.0,64,0.00,,,0.00,Wunderground v.1.15,2013-03-04 04:33:00,
2013-03-03 23:38:00,50.4,39.1,30.17,ESE,119,1.0,3.0,65,0.00,,,0.00,Wunderground v.1.15,2013-03-04 04:38:00,
2013-03-03 23:44:00,50.5,38.4,30.17,NNE,23,4.0,5.0,63,0.00,,,0.00,Wunderground v.1.15,2013-03-04 04:44:00,
2013-03-03 23:49:00,50.6,38.9,30.17,ENE,58,1.0,6.0,64,0.00,,,0.00,Wunderground v.1.15,2013-03-04 04:49:00,
2013-03-03 23:54:00,50.8,39.5,30.17,NE,54,2.0,4.0,65,0.00,,,0.00,Wunderground v.1.15,2013-03-04 04:54:00,
2013-03-03 23:59:00,50.8,39.5,30.17,NE,37,0.0,5.0,65,0.00,,,0.00,Wunderground v.1.15,2013-03-04 04:59:00,